sensor_id;sensor_type;location;lat;lon;timestamp;temperature;humidity
10536;DHT22;5316;49.538;8.352;2022-08-18T00:02:07;23.50;99.90
10536;DHT22;5316;49.538;8.352;2022-08-18T00:04:35;23.50;99.90
10536;DHT22;5316;49.538;8.352;2022-08-18T00:07:03;23.50;99.90
10536;DHT22;5316;49.538;8.352;2022-08-18T00:09:30;23.50;99.90
10536;DHT22;5316;49.538;8.352;2022-08-18T00:11:57;23.50;99.90
10536;DHT22;5316;49.538;8.352;2022-08-18T00:14:23;23.50;99.90
10536;DHT22;5316;49.538;8.352;2022-08-18T00:16:52;23.40;99.90
10536;DHT22;5316;49.538;8.352;2022-08-18T00:19:21;23.40;99.90
10536;DHT22;5316;49.538;8.352;2022-08-18T00:21:48;23.40;99.90
10536;DHT22;5316;49.538;8.352;2022-08-18T00:24:14;23.40;99.90
10536;DHT22;5316;49.538;8.352;2022-08-18T00:26:41;23.30;99.90
10536;DHT22;5316;49.538;8.352;2022-08-18T00:29:08;23.30;99.90
10536;DHT22;5316;49.538;8.352;2022-08-18T00:31:35;23.30;99.90
10536;DHT22;5316;49.538;8.352;2022-08-18T00:34:02;23.30;99.90
10536;DHT22;5316;49.538;8.352;2022-08-18T00:36:30;23.30;99.90
10536;DHT22;5316;49.538;8.352;2022-08-18T00:38:59;23.20;99.90
10536;DHT22;5316;49.538;8.352;2022-08-18T00:41:26;23.20;99.90
10536;DHT22;5316;49.538;8.352;2022-08-18T00:43:54;23.10;99.90
10536;DHT22;5316;49.538;8.352;2022-08-18T00:46:25;23.00;99.90
10536;DHT22;5316;49.538;8.352;2022-08-18T00:48:53;22.90;99.90
10536;DHT22;5316;49.538;8.352;2022-08-18T00:51:23;22.70;99.90
10536;DHT22;5316;49.538;8.352;2022-08-18T00:53:59;22.60;99.90
10536;DHT22;5316;49.538;8.352;2022-08-18T00:56:29;22.60;99.90
10536;DHT22;5316;49.538;8.352;2022-08-18T00:59:02;22.60;99.90
10536;DHT22;5316;49.538;8.352;2022-08-18T01:01:31;22.50;99.90
10536;DHT22;5316;49.538;8.352;2022-08-18T01:04:03;22.50;99.90
10536;DHT22;5316;49.538;8.352;2022-08-18T01:06:36;22.50;99.90
10536;DHT22;5316;49.538;8.352;2022-08-18T01:09:06;22.50;99.90
10536;DHT22;5316;49.538;8.352;2022-08-18T01:11:33;22.40;99.90
10536;DHT22;5316;49.538;8.352;2022-08-18T01:14:03;22.40;99.90
10536;DHT22;5316;49.538;8.352;2022-08-18T01:16:30;22.40;99.90
10536;DHT22;5316;49.538;8.352;2022-08-18T01:19:15;22.40;99.90
10536;DHT22;5316;49.538;8.352;2022-08-18T01:22:07;22.40;99.90
10536;DHT22;5316;49.538;8.352;2022-08-18T01:24:37;22.40;99.90
10536;DHT22;5316;49.538;8.352;2022-08-18T01:27:22;22.40;99.90
10536;DHT22;5316;49.538;8.352;2022-08-18T01:29:49;22.40;99.90
10536;DHT22;5316;49.538;8.352;2022-08-18T01:32:19;22.40;99.90
10536;DHT22;5316;49.538;8.352;2022-08-18T01:34:49;22.40;99.90
10536;DHT22;5316;49.538;8.352;2022-08-18T01:37:20;22.40;99.90
10536;DHT22;5316;49.538;8.352;2022-08-18T01:39:50;22.40;99.90
10536;DHT22;5316;49.538;8.352;2022-08-18T01:42:17;22.40;99.90
10536;DHT22;5316;49.538;8.352;2022-08-18T01:44:44;22.40;99.90
10536;DHT22;5316;49.538;8.352;2022-08-18T01:47:12;22.40;99.90
10536;DHT22;5316;49.538;8.352;2022-08-18T01:49:40;22.30;99.90
10536;DHT22;5316;49.538;8.352;2022-08-18T01:52:08;22.30;99.90
10536;DHT22;5316;49.538;8.352;2022-08-18T01:54:35;22.30;99.90
10536;DHT22;5316;49.538;8.352;2022-08-18T01:57:04;22.20;99.90
10536;DHT22;5316;49.538;8.352;2022-08-18T01:59:30;22.20;99.90
10536;DHT22;5316;49.538;8.352;2022-08-18T02:01:59;22.20;99.90
10536;DHT22;5316;49.538;8.352;2022-08-18T02:04:29;22.10;99.90
10536;DHT22;5316;49.538;8.352;2022-08-18T02:06:58;22.10;99.90
10536;DHT22;5316;49.538;8.352;2022-08-18T02:09:25;22.10;99.90
10536;DHT22;5316;49.538;8.352;2022-08-18T02:11:52;22.10;99.90
10536;DHT22;5316;49.538;8.352;2022-08-18T02:14:21;22.10;99.90
10536;DHT22;5316;49.538;8.352;2022-08-18T02:16:48;22.00;99.90
10536;DHT22;5316;49.538;8.352;2022-08-18T02:19:14;22.00;99.90
10536;DHT22;5316;49.538;8.352;2022-08-18T02:21:41;22.00;99.90
10536;DHT22;5316;49.538;8.352;2022-08-18T02:24:08;21.90;99.90
10536;DHT22;5316;49.538;8.352;2022-08-18T02:26:34;21.90;99.90
10536;DHT22;5316;49.538;8.352;2022-08-18T02:29:01;21.80;99.90
10536;DHT22;5316;49.538;8.352;2022-08-18T02:31:30;21.80;99.90
10536;DHT22;5316;49.538;8.352;2022-08-18T02:33:57;21.80;99.90
10536;DHT22;5316;49.538;8.352;2022-08-18T02:36:23;21.70;99.90
10536;DHT22;5316;49.538;8.352;2022-08-18T02:38:50;21.70;99.90
10536;DHT22;5316;49.538;8.352;2022-08-18T02:41:17;21.70;99.90
10536;DHT22;5316;49.538;8.352;2022-08-18T02:43:44;21.70;99.90
10536;DHT22;5316;49.538;8.352;2022-08-18T02:46:13;21.70;99.90
10536;DHT22;5316;49.538;8.352;2022-08-18T02:48:41;21.70;99.90
10536;DHT22;5316;49.538;8.352;2022-08-18T02:51:10;21.70;99.90
10536;DHT22;5316;49.538;8.352;2022-08-18T02:53:38;21.60;99.90
10536;DHT22;5316;49.538;8.352;2022-08-18T02:56:07;21.60;99.90
10536;DHT22;5316;49.538;8.352;2022-08-18T02:58:46;21.50;99.90
10536;DHT22;5316;49.538;8.352;2022-08-18T03:01:12;21.50;99.90
10536;DHT22;5316;49.538;8.352;2022-08-18T03:03:41;21.50;99.90
10536;DHT22;5316;49.538;8.352;2022-08-18T03:06:07;21.50;99.90
10536;DHT22;5316;49.538;8.352;2022-08-18T03:08:34;21.50;99.90
10536;DHT22;5316;49.538;8.352;2022-08-18T03:11:01;21.50;99.90
10536;DHT22;5316;49.538;8.352;2022-08-18T03:13:28;21.40;99.90
10536;DHT22;5316;49.538;8.352;2022-08-18T03:15:54;21.40;99.90
10536;DHT22;5316;49.538;8.352;2022-08-18T03:18:21;21.40;99.90
10536;DHT22;5316;49.538;8.352;2022-08-18T03:20:49;21.40;99.90
10536;DHT22;5316;49.538;8.352;2022-08-18T03:23:16;21.30;99.90
10536;DHT22;5316;49.538;8.352;2022-08-18T03:25:45;21.30;99.90
10536;DHT22;5316;49.538;8.352;2022-08-18T03:28:12;21.40;99.90
10536;DHT22;5316;49.538;8.352;2022-08-18T03:30:39;21.30;99.90
10536;DHT22;5316;49.538;8.352;2022-08-18T03:33:06;21.40;99.90
10536;DHT22;5316;49.538;8.352;2022-08-18T03:35:33;21.40;99.90
10536;DHT22;5316;49.538;8.352;2022-08-18T03:38:02;21.40;99.90
10536;DHT22;5316;49.538;8.352;2022-08-18T03:40:29;21.40;99.90
10536;DHT22;5316;49.538;8.352;2022-08-18T03:42:56;21.40;99.90
10536;DHT22;5316;49.538;8.352;2022-08-18T03:45:22;21.40;99.90
10536;DHT22;5316;49.538;8.352;2022-08-18T03:47:53;21.40;99.90
10536;DHT22;5316;49.538;8.352;2022-08-18T03:50:20;21.40;99.90
10536;DHT22;5316;49.538;8.352;2022-08-18T03:52:50;21.40;99.90
10536;DHT22;5316;49.538;8.352;2022-08-18T03:55:18;21.40;99.90
10536;DHT22;5316;49.538;8.352;2022-08-18T03:57:45;21.30;99.90
10536;DHT22;5316;49.538;8.352;2022-08-18T04:00:12;21.30;99.90
10536;DHT22;5316;49.538;8.352;2022-08-18T04:02:39;21.30;99.90
10536;DHT22;5316;49.538;8.352;2022-08-18T04:05:06;21.30;99.90
10536;DHT22;5316;49.538;8.352;2022-08-18T04:07:34;21.30;99.90
10536;DHT22;5316;49.538;8.352;2022-08-18T04:10:01;21.30;99.90
10536;DHT22;5316;49.538;8.352;2022-08-18T04:12:29;21.20;99.90
10536;DHT22;5316;49.538;8.352;2022-08-18T04:14:57;21.20;99.90
10536;DHT22;5316;49.538;8.352;2022-08-18T04:17:23;21.10;99.90
10536;DHT22;5316;49.538;8.352;2022-08-18T04:19:50;21.10;99.90
10536;DHT22;5316;49.538;8.352;2022-08-18T04:22:17;21.10;99.90
10536;DHT22;5316;49.538;8.352;2022-08-18T04:24:44;21.00;99.90
10536;DHT22;5316;49.538;8.352;2022-08-18T04:27:12;20.90;99.90
10536;DHT22;5316;49.538;8.352;2022-08-18T04:29:40;20.90;99.90
10536;DHT22;5316;49.538;8.352;2022-08-18T04:32:07;20.80;99.90
10536;DHT22;5316;49.538;8.352;2022-08-18T04:34:34;20.70;99.90
10536;DHT22;5316;49.538;8.352;2022-08-18T04:37:01;20.70;99.90
10536;DHT22;5316;49.538;8.352;2022-08-18T04:39:28;20.70;99.90
10536;DHT22;5316;49.538;8.352;2022-08-18T04:41:56;20.70;99.90
10536;DHT22;5316;49.538;8.352;2022-08-18T04:44:23;20.70;99.90
10536;DHT22;5316;49.538;8.352;2022-08-18T04:46:52;20.80;99.90
10536;DHT22;5316;49.538;8.352;2022-08-18T04:49:21;20.90;99.90
10536;DHT22;5316;49.538;8.352;2022-08-18T04:51:52;20.90;99.90
10536;DHT22;5316;49.538;8.352;2022-08-18T04:54:39;20.80;99.90
10536;DHT22;5316;49.538;8.352;2022-08-18T04:57:07;20.80;99.90
10536;DHT22;5316;49.538;8.352;2022-08-18T04:59:35;20.80;99.90
10536;DHT22;5316;49.538;8.352;2022-08-18T05:02:03;20.90;99.90
10536;DHT22;5316;49.538;8.352;2022-08-18T05:04:32;20.80;99.90
10536;DHT22;5316;49.538;8.352;2022-08-18T05:06:59;20.80;99.90
10536;DHT22;5316;49.538;8.352;2022-08-18T05:09:26;20.70;99.90
10536;DHT22;5316;49.538;8.352;2022-08-18T05:11:53;20.80;99.90
10536;DHT22;5316;49.538;8.352;2022-08-18T05:14:20;20.90;99.90
10536;DHT22;5316;49.538;8.352;2022-08-18T05:16:47;21.00;99.90
10536;DHT22;5316;49.538;8.352;2022-08-18T05:19:17;21.00;99.90
10536;DHT22;5316;49.538;8.352;2022-08-18T05:21:47;21.00;99.90
10536;DHT22;5316;49.538;8.352;2022-08-18T05:24:13;21.00;99.90
10536;DHT22;5316;49.538;8.352;2022-08-18T05:26:40;21.00;99.90
10536;DHT22;5316;49.538;8.352;2022-08-18T05:29:07;20.90;99.90
10536;DHT22;5316;49.538;8.352;2022-08-18T05:31:34;20.90;99.90
10536;DHT22;5316;49.538;8.352;2022-08-18T05:34:00;20.90;99.90
10536;DHT22;5316;49.538;8.352;2022-08-18T05:36:44;20.90;99.90
10536;DHT22;5316;49.538;8.352;2022-08-18T05:39:21;20.90;99.90
10536;DHT22;5316;49.538;8.352;2022-08-18T05:41:51;20.90;99.90
10536;DHT22;5316;49.538;8.352;2022-08-18T05:44:24;20.90;99.90
10536;DHT22;5316;49.538;8.352;2022-08-18T05:46:55;20.90;99.90
10536;DHT22;5316;49.538;8.352;2022-08-18T05:49:24;20.80;99.90
10536;DHT22;5316;49.538;8.352;2022-08-18T05:51:56;20.80;99.90
10536;DHT22;5316;49.538;8.352;2022-08-18T05:54:26;20.80;99.90
10536;DHT22;5316;49.538;8.352;2022-08-18T05:57:16;20.80;99.90
10536;DHT22;5316;49.538;8.352;2022-08-18T05:59:44;20.80;99.90
10536;DHT22;5316;49.538;8.352;2022-08-18T06:02:15;20.80;99.90
10536;DHT22;5316;49.538;8.352;2022-08-18T06:04:46;20.90;99.90
10536;DHT22;5316;49.538;8.352;2022-08-18T06:07:21;20.90;99.90
10536;DHT22;5316;49.538;8.352;2022-08-18T06:09:52;21.00;99.90
10536;DHT22;5316;49.538;8.352;2022-08-18T06:12:26;21.00;99.90
10536;DHT22;5316;49.538;8.352;2022-08-18T06:15:02;21.10;99.90
10536;DHT22;5316;49.538;8.352;2022-08-18T06:17:45;21.20;99.90
10536;DHT22;5316;49.538;8.352;2022-08-18T06:20:20;21.20;99.90
10536;DHT22;5316;49.538;8.352;2022-08-18T06:22:57;21.30;99.90
10536;DHT22;5316;49.538;8.352;2022-08-18T06:25:29;21.20;99.90
10536;DHT22;5316;49.538;8.352;2022-08-18T06:28:02;21.30;99.90
10536;DHT22;5316;49.538;8.352;2022-08-18T06:30:43;21.30;99.90
10536;DHT22;5316;49.538;8.352;2022-08-18T06:33:22;21.30;99.90
10536;DHT22;5316;49.538;8.352;2022-08-18T06:35:58;21.20;99.90
10536;DHT22;5316;49.538;8.352;2022-08-18T06:38:40;21.10;99.90
10536;DHT22;5316;49.538;8.352;2022-08-18T06:41:15;21.00;99.90
10536;DHT22;5316;49.538;8.352;2022-08-18T06:43:53;21.10;99.90
10536;DHT22;5316;49.538;8.352;2022-08-18T06:46:28;21.00;99.90
10536;DHT22;5316;49.538;8.352;2022-08-18T06:49:02;20.90;99.90
10536;DHT22;5316;49.538;8.352;2022-08-18T06:51:30;21.00;99.90
10536;DHT22;5316;49.538;8.352;2022-08-18T06:54:02;21.00;99.90
10536;DHT22;5316;49.538;8.352;2022-08-18T06:56:48;21.00;99.90
10536;DHT22;5316;49.538;8.352;2022-08-18T06:59:21;21.00;99.90
10536;DHT22;5316;49.538;8.352;2022-08-18T07:01:51;21.10;99.90
10536;DHT22;5316;49.538;8.352;2022-08-18T07:04:35;21.10;99.90
10536;DHT22;5316;49.538;8.352;2022-08-18T07:07:19;21.00;99.90
10536;DHT22;5316;49.538;8.352;2022-08-18T07:09:55;21.10;99.90
10536;DHT22;5316;49.538;8.352;2022-08-18T07:12:24;21.10;99.90
10536;DHT22;5316;49.538;8.352;2022-08-18T07:14:52;21.10;99.90
10536;DHT22;5316;49.538;8.352;2022-08-18T07:17:23;21.00;99.90
10536;DHT22;5316;49.538;8.352;2022-08-18T07:19:59;21.00;99.90
10536;DHT22;5316;49.538;8.352;2022-08-18T07:22:27;21.00;99.90
10536;DHT22;5316;49.538;8.352;2022-08-18T07:24:57;21.10;99.90
10536;DHT22;5316;49.538;8.352;2022-08-18T07:27:41;21.10;99.90
10536;DHT22;5316;49.538;8.352;2022-08-18T07:30:11;21.10;99.90
10536;DHT22;5316;49.538;8.352;2022-08-18T07:32:43;21.20;99.90
10536;DHT22;5316;49.538;8.352;2022-08-18T07:35:14;21.20;99.90
10536;DHT22;5316;49.538;8.352;2022-08-18T07:37:46;21.30;99.90
10536;DHT22;5316;49.538;8.352;2022-08-18T07:40:21;21.30;99.90
10536;DHT22;5316;49.538;8.352;2022-08-18T07:42:51;21.50;99.90
10536;DHT22;5316;49.538;8.352;2022-08-18T07:45:23;21.60;99.90
10536;DHT22;5316;49.538;8.352;2022-08-18T07:47:54;21.60;99.90
10536;DHT22;5316;49.538;8.352;2022-08-18T07:50:24;21.70;99.90
10536;DHT22;5316;49.538;8.352;2022-08-18T07:53:01;21.80;99.90
10536;DHT22;5316;49.538;8.352;2022-08-18T07:55:34;21.80;99.90
10536;DHT22;5316;49.538;8.352;2022-08-18T07:58:11;21.80;99.90
10536;DHT22;5316;49.538;8.352;2022-08-18T08:00:52;21.80;99.90
10536;DHT22;5316;49.538;8.352;2022-08-18T08:03:29;21.80;99.90
10536;DHT22;5316;49.538;8.352;2022-08-18T08:06:01;21.70;99.90
10536;DHT22;5316;49.538;8.352;2022-08-18T08:08:36;21.80;99.90
10536;DHT22;5316;49.538;8.352;2022-08-18T08:11:19;21.80;99.90
10536;DHT22;5316;49.538;8.352;2022-08-18T08:13:56;21.80;99.90
10536;DHT22;5316;49.538;8.352;2022-08-18T08:16:35;21.90;99.90
10536;DHT22;5316;49.538;8.352;2022-08-18T08:19:17;21.90;99.90
10536;DHT22;5316;49.538;8.352;2022-08-18T08:21:52;21.90;99.90
10536;DHT22;5316;49.538;8.352;2022-08-18T08:24:27;21.90;99.90
10536;DHT22;5316;49.538;8.352;2022-08-18T08:27:03;21.90;99.90
10536;DHT22;5316;49.538;8.352;2022-08-18T08:29:38;21.90;99.90
10536;DHT22;5316;49.538;8.352;2022-08-18T08:32:11;21.90;99.90
10536;DHT22;5316;49.538;8.352;2022-08-18T08:34:45;21.90;99.90
10536;DHT22;5316;49.538;8.352;2022-08-18T08:37:20;21.80;99.90
10536;DHT22;5316;49.538;8.352;2022-08-18T08:39:53;21.80;99.90
10536;DHT22;5316;49.538;8.352;2022-08-18T08:42:30;21.80;99.90
10536;DHT22;5316;49.538;8.352;2022-08-18T08:45:08;21.80;99.90
10536;DHT22;5316;49.538;8.352;2022-08-18T08:47:40;21.70;99.90
10536;DHT22;5316;49.538;8.352;2022-08-18T08:50:10;21.60;99.90
10536;DHT22;5316;49.538;8.352;2022-08-18T08:52:42;21.60;99.90
10536;DHT22;5316;49.538;8.352;2022-08-18T08:55:14;21.60;99.90
10536;DHT22;5316;49.538;8.352;2022-08-18T08:57:47;21.50;99.90
10536;DHT22;5316;49.538;8.352;2022-08-18T09:00:15;21.50;99.90
10536;DHT22;5316;49.538;8.352;2022-08-18T09:03:06;21.60;99.90
10536;DHT22;5316;49.538;8.352;2022-08-18T09:05:36;21.70;99.90
10536;DHT22;5316;49.538;8.352;2022-08-18T09:08:20;21.80;99.90
10536;DHT22;5316;49.538;8.352;2022-08-18T09:11:17;21.80;99.90
10536;DHT22;5316;49.538;8.352;2022-08-18T09:14:01;21.80;99.90
10536;DHT22;5316;49.538;8.352;2022-08-18T09:16:44;21.70;99.90
10536;DHT22;5316;49.538;8.352;2022-08-18T09:19:31;21.70;99.90
10536;DHT22;5316;49.538;8.352;2022-08-18T09:22:06;21.70;99.90
10536;DHT22;5316;49.538;8.352;2022-08-18T09:24:40;21.70;99.90
10536;DHT22;5316;49.538;8.352;2022-08-18T09:27:15;21.70;99.90
10536;DHT22;5316;49.538;8.352;2022-08-18T09:29:53;21.70;99.90
10536;DHT22;5316;49.538;8.352;2022-08-18T09:32:42;21.80;99.90
10536;DHT22;5316;49.538;8.352;2022-08-18T09:35:25;21.90;99.90
10536;DHT22;5316;49.538;8.352;2022-08-18T09:37:59;22.10;99.90
10536;DHT22;5316;49.538;8.352;2022-08-18T09:40:50;22.20;99.90
10536;DHT22;5316;49.538;8.352;2022-08-18T09:43:35;22.20;99.90
10536;DHT22;5316;49.538;8.352;2022-08-18T09:46:06;22.30;99.90
10536;DHT22;5316;49.538;8.352;2022-08-18T09:48:35;22.40;99.90
10536;DHT22;5316;49.538;8.352;2022-08-18T09:51:21;22.60;99.90
10536;DHT22;5316;49.538;8.352;2022-08-18T09:54:18;22.60;99.90
10536;DHT22;5316;49.538;8.352;2022-08-18T09:57:19;22.70;99.90
10536;DHT22;5316;49.538;8.352;2022-08-18T10:03:12;22.80;99.90
10536;DHT22;5316;49.538;8.352;2022-08-18T10:05:55;22.80;99.90
10536;DHT22;5316;49.538;8.352;2022-08-18T10:12:03;22.90;99.90
10536;DHT22;5316;49.538;8.352;2022-08-18T10:14:54;23.00;99.90
10536;DHT22;5316;49.538;8.352;2022-08-18T10:17:37;23.00;99.90
10536;DHT22;5316;49.538;8.352;2022-08-18T10:20:15;22.90;99.90
10536;DHT22;5316;49.538;8.352;2022-08-18T10:22:47;22.90;99.90
10536;DHT22;5316;49.538;8.352;2022-08-18T10:25:31;22.80;99.90
10536;DHT22;5316;49.538;8.352;2022-08-18T10:27:58;22.90;99.90
10536;DHT22;5316;49.538;8.352;2022-08-18T10:31:03;22.90;99.90
10536;DHT22;5316;49.538;8.352;2022-08-18T10:33:59;22.80;99.90
10536;DHT22;5316;49.538;8.352;2022-08-18T10:36:45;22.80;99.90
10536;DHT22;5316;49.538;8.352;2022-08-18T10:39:16;22.80;99.90
10536;DHT22;5316;49.538;8.352;2022-08-18T10:42:03;22.90;99.90
10536;DHT22;5316;49.538;8.352;2022-08-18T10:44:33;22.90;99.90
10536;DHT22;5316;49.538;8.352;2022-08-18T10:47:03;22.90;99.90
10536;DHT22;5316;49.538;8.352;2022-08-18T10:49:30;22.90;99.90
10536;DHT22;5316;49.538;8.352;2022-08-18T10:52:22;22.90;99.90
10536;DHT22;5316;49.538;8.352;2022-08-18T10:55:04;23.00;99.90
10536;DHT22;5316;49.538;8.352;2022-08-18T10:57:54;22.90;99.90
10536;DHT22;5316;49.538;8.352;2022-08-18T11:00:45;23.00;99.90
10536;DHT22;5316;49.538;8.352;2022-08-18T11:03:24;22.90;99.90
10536;DHT22;5316;49.538;8.352;2022-08-18T11:06:00;22.90;99.90
10536;DHT22;5316;49.538;8.352;2022-08-18T11:08:31;22.90;99.90
10536;DHT22;5316;49.538;8.352;2022-08-18T11:11:05;23.10;99.90
10536;DHT22;5316;49.538;8.352;2022-08-18T11:13:42;23.20;99.90
10536;DHT22;5316;49.538;8.352;2022-08-18T11:16:24;23.30;99.90
10536;DHT22;5316;49.538;8.352;2022-08-18T11:18:57;23.30;99.90
10536;DHT22;5316;49.538;8.352;2022-08-18T11:21:37;23.30;99.90
10536;DHT22;5316;49.538;8.352;2022-08-18T11:24:09;23.40;99.90
10536;DHT22;5316;49.538;8.352;2022-08-18T11:26:40;23.40;99.90
10536;DHT22;5316;49.538;8.352;2022-08-18T11:29:29;23.40;99.90
10536;DHT22;5316;49.538;8.352;2022-08-18T11:32:01;23.60;99.90
10536;DHT22;5316;49.538;8.352;2022-08-18T11:34:35;23.70;99.90
10536;DHT22;5316;49.538;8.352;2022-08-18T11:37:06;23.70;99.90
10536;DHT22;5316;49.538;8.352;2022-08-18T11:39:41;23.60;99.90
10536;DHT22;5316;49.538;8.352;2022-08-18T11:42:14;23.50;99.90
10536;DHT22;5316;49.538;8.352;2022-08-18T11:44:41;23.50;99.90
10536;DHT22;5316;49.538;8.352;2022-08-18T11:47:13;23.60;99.90
10536;DHT22;5316;49.538;8.352;2022-08-18T11:49:53;23.60;99.90
10536;DHT22;5316;49.538;8.352;2022-08-18T11:52:24;23.70;99.90
10536;DHT22;5316;49.538;8.352;2022-08-18T11:54:58;23.70;99.90
10536;DHT22;5316;49.538;8.352;2022-08-18T11:57:32;23.60;99.90
10536;DHT22;5316;49.538;8.352;2022-08-18T12:00:38;23.60;99.90
10536;DHT22;5316;49.538;8.352;2022-08-18T12:03:08;23.60;99.90
10536;DHT22;5316;49.538;8.352;2022-08-18T12:05:41;23.60;99.90
10536;DHT22;5316;49.538;8.352;2022-08-18T12:08:17;23.70;99.90
10536;DHT22;5316;49.538;8.352;2022-08-18T12:10:47;23.80;99.90
10536;DHT22;5316;49.538;8.352;2022-08-18T12:13:21;24.00;99.90
10536;DHT22;5316;49.538;8.352;2022-08-18T12:16:07;24.30;99.90
10536;DHT22;5316;49.538;8.352;2022-08-18T12:18:35;24.40;99.90
10536;DHT22;5316;49.538;8.352;2022-08-18T12:21:01;24.50;99.90
10536;DHT22;5316;49.538;8.352;2022-08-18T12:23:28;24.60;99.90
10536;DHT22;5316;49.538;8.352;2022-08-18T12:25:57;24.70;99.90
10536;DHT22;5316;49.538;8.352;2022-08-18T12:28:24;24.80;99.90
10536;DHT22;5316;49.538;8.352;2022-08-18T12:30:51;24.90;99.90
10536;DHT22;5316;49.538;8.352;2022-08-18T12:33:18;25.00;99.90
10536;DHT22;5316;49.538;8.352;2022-08-18T12:35:45;25.10;99.90
10536;DHT22;5316;49.538;8.352;2022-08-18T12:38:12;25.20;99.90
10536;DHT22;5316;49.538;8.352;2022-08-18T12:40:39;25.20;99.90
10536;DHT22;5316;49.538;8.352;2022-08-18T12:43:07;25.20;99.90
10536;DHT22;5316;49.538;8.352;2022-08-18T12:45:34;25.30;99.90
10536;DHT22;5316;49.538;8.352;2022-08-18T12:48:02;25.40;99.90
10536;DHT22;5316;49.538;8.352;2022-08-18T12:50:29;25.60;99.90
10536;DHT22;5316;49.538;8.352;2022-08-18T12:52:56;26.00;99.90
10536;DHT22;5316;49.538;8.352;2022-08-18T12:55:22;26.40;99.90
10536;DHT22;5316;49.538;8.352;2022-08-18T12:57:49;26.70;99.90
10536;DHT22;5316;49.538;8.352;2022-08-18T13:00:17;27.10;99.90
10536;DHT22;5316;49.538;8.352;2022-08-18T13:02:45;27.40;99.90
10536;DHT22;5316;49.538;8.352;2022-08-18T13:05:12;27.60;99.90
10536;DHT22;5316;49.538;8.352;2022-08-18T13:07:38;27.80;99.90
10536;DHT22;5316;49.538;8.352;2022-08-18T13:10:07;28.00;99.90
10536;DHT22;5316;49.538;8.352;2022-08-18T13:12:33;28.20;99.90
10536;DHT22;5316;49.538;8.352;2022-08-18T13:15:00;28.20;99.90
10536;DHT22;5316;49.538;8.352;2022-08-18T13:17:28;28.10;99.90
10536;DHT22;5316;49.538;8.352;2022-08-18T13:19:55;28.20;99.90
10536;DHT22;5316;49.538;8.352;2022-08-18T13:22:22;28.30;99.90
10536;DHT22;5316;49.538;8.352;2022-08-18T13:24:49;28.40;99.90
10536;DHT22;5316;49.538;8.352;2022-08-18T13:27:18;28.50;99.90
10536;DHT22;5316;49.538;8.352;2022-08-18T13:29:47;28.60;99.90
10536;DHT22;5316;49.538;8.352;2022-08-18T13:32:13;28.70;99.90
10536;DHT22;5316;49.538;8.352;2022-08-18T13:34:41;28.90;99.90
10536;DHT22;5316;49.538;8.352;2022-08-18T13:37:08;29.10;99.60
10536;DHT22;5316;49.538;8.352;2022-08-18T13:39:35;29.20;98.80
10536;DHT22;5316;49.538;8.352;2022-08-18T13:42:02;29.40;98.60
10536;DHT22;5316;49.538;8.352;2022-08-18T13:44:29;29.80;95.90
10536;DHT22;5316;49.538;8.352;2022-08-18T13:46:56;30.00;95.50
10536;DHT22;5316;49.538;8.352;2022-08-18T13:49:23;30.10;93.00
10536;DHT22;5316;49.538;8.352;2022-08-18T13:51:53;30.10;92.90
10536;DHT22;5316;49.538;8.352;2022-08-18T13:54:25;29.70;93.30
10536;DHT22;5316;49.538;8.352;2022-08-18T13:56:53;29.50;93.30
10536;DHT22;5316;49.538;8.352;2022-08-18T13:59:20;29.30;93.30
10536;DHT22;5316;49.538;8.352;2022-08-18T14:01:47;29.10;94.00
10536;DHT22;5316;49.538;8.352;2022-08-18T14:04:14;29.00;93.10
10536;DHT22;5316;49.538;8.352;2022-08-18T14:06:41;28.70;94.60
10536;DHT22;5316;49.538;8.352;2022-08-18T14:09:09;28.70;95.00
10536;DHT22;5316;49.538;8.352;2022-08-18T14:11:38;28.70;94.60
10536;DHT22;5316;49.538;8.352;2022-08-18T14:14:05;28.70;95.20
10536;DHT22;5316;49.538;8.352;2022-08-18T14:16:33;28.70;95.50
10536;DHT22;5316;49.538;8.352;2022-08-18T14:19:00;28.50;94.40
10536;DHT22;5316;49.538;8.352;2022-08-18T14:21:46;28.10;95.60
10536;DHT22;5316;49.538;8.352;2022-08-18T14:24:33;28.10;96.90
10536;DHT22;5316;49.538;8.352;2022-08-18T14:27:23;28.30;96.90
10536;DHT22;5316;49.538;8.352;2022-08-18T14:29:50;28.50;93.70
10536;DHT22;5316;49.538;8.352;2022-08-18T14:32:19;28.50;93.60
10536;DHT22;5316;49.538;8.352;2022-08-18T14:34:48;28.50;94.60
10536;DHT22;5316;49.538;8.352;2022-08-18T14:37:14;28.80;94.00
10536;DHT22;5316;49.538;8.352;2022-08-18T14:39:42;29.10;93.60
10536;DHT22;5316;49.538;8.352;2022-08-18T14:44:41;29.20;92.80
10536;DHT22;5316;49.538;8.352;2022-08-18T14:47:07;29.60;90.50
10536;DHT22;5316;49.538;8.352;2022-08-18T14:49:34;29.20;91.10
10536;DHT22;5316;49.538;8.352;2022-08-18T14:52:01;29.10;91.80
10536;DHT22;5316;49.538;8.352;2022-08-18T14:54:30;29.40;91.10
10536;DHT22;5316;49.538;8.352;2022-08-18T14:56:59;29.20;91.70
10536;DHT22;5316;49.538;8.352;2022-08-18T14:59:27;29.40;91.80
10536;DHT22;5316;49.538;8.352;2022-08-18T15:01:55;29.50;91.50
10536;DHT22;5316;49.538;8.352;2022-08-18T15:04:21;29.40;90.80
10536;DHT22;5316;49.538;8.352;2022-08-18T15:06:49;29.40;91.60
10536;DHT22;5316;49.538;8.352;2022-08-18T15:09:16;29.50;91.20
10536;DHT22;5316;49.538;8.352;2022-08-18T15:11:42;29.50;90.50
10536;DHT22;5316;49.538;8.352;2022-08-18T15:14:10;29.60;89.40
10536;DHT22;5316;49.538;8.352;2022-08-18T15:16:38;29.30;89.80
10536;DHT22;5316;49.538;8.352;2022-08-18T15:19:05;28.90;91.20
10536;DHT22;5316;49.538;8.352;2022-08-18T15:21:31;28.60;92.60
10536;DHT22;5316;49.538;8.352;2022-08-18T15:24:24;28.60;93.10
10536;DHT22;5316;49.538;8.352;2022-08-18T15:27:09;28.10;94.20
10536;DHT22;5316;49.538;8.352;2022-08-18T15:29:37;28.00;95.40
10536;DHT22;5316;49.538;8.352;2022-08-18T15:32:04;27.90;95.90
10536;DHT22;5316;49.538;8.352;2022-08-18T15:34:32;27.80;96.00
10536;DHT22;5316;49.538;8.352;2022-08-18T15:36:59;27.60;96.80
10536;DHT22;5316;49.538;8.352;2022-08-18T15:39:26;27.50;97.60
10536;DHT22;5316;49.538;8.352;2022-08-18T15:41:53;27.50;97.70
10536;DHT22;5316;49.538;8.352;2022-08-18T15:44:21;27.60;98.20
10536;DHT22;5316;49.538;8.352;2022-08-18T15:46:49;27.80;97.50
10536;DHT22;5316;49.538;8.352;2022-08-18T15:49:18;27.90;96.30
10536;DHT22;5316;49.538;8.352;2022-08-18T15:51:45;27.90;96.10
10536;DHT22;5316;49.538;8.352;2022-08-18T15:54:12;28.00;95.90
10536;DHT22;5316;49.538;8.352;2022-08-18T15:56:39;28.20;96.00
10536;DHT22;5316;49.538;8.352;2022-08-18T15:59:06;28.00;95.70
10536;DHT22;5316;49.538;8.352;2022-08-18T16:01:35;28.00;96.70
10536;DHT22;5316;49.538;8.352;2022-08-18T16:04:04;28.00;96.40
10536;DHT22;5316;49.538;8.352;2022-08-18T16:06:32;28.00;96.50
10536;DHT22;5316;49.538;8.352;2022-08-18T16:09:00;28.20;96.10
10536;DHT22;5316;49.538;8.352;2022-08-18T16:11:27;28.10;95.80
10536;DHT22;5316;49.538;8.352;2022-08-18T16:13:53;27.80;96.70
10536;DHT22;5316;49.538;8.352;2022-08-18T16:16:23;27.60;97.20
10536;DHT22;5316;49.538;8.352;2022-08-18T16:18:50;27.60;97.40
10536;DHT22;5316;49.538;8.352;2022-08-18T16:21:20;27.50;97.70
10536;DHT22;5316;49.538;8.352;2022-08-18T16:23:51;27.40;98.40